sensor_id;sensor_type;location;lat;lon;timestamp;P1;durP1;ratioP1;P2;durP2;ratioP2
18796;SDS011;9526;52.612;13.300;2023-08-12T00:01:07;6.68;;;5.30;;
18796;SDS011;9526;52.612;13.300;2023-08-12T00:03:30;6.60;;;4.45;;
18796;SDS011;9526;52.612;13.300;2023-08-12T00:05:54;7.95;;;4.88;;
18796;SDS011;9526;52.612;13.300;2023-08-12T00:08:18;7.13;;;4.88;;
18796;SDS011;9526;52.612;13.300;2023-08-12T00:10:44;5.93;;;4.47;;
18796;SDS011;9526;52.612;13.300;2023-08-12T00:13:07;7.82;;;5.07;;
18796;SDS011;9526;52.612;13.300;2023-08-12T00:15:31;6.60;;;5.00;;
18796;SDS011;9526;52.612;13.300;2023-08-12T00:17:55;6.15;;;4.55;;
18796;SDS011;9526;52.612;13.300;2023-08-12T00:20:19;6.43;;;4.88;;
18796;SDS011;9526;52.612;13.300;2023-08-12T00:22:43;7.65;;;4.82;;
18796;SDS011;9526;52.612;13.300;2023-08-12T00:25:07;6.50;;;4.72;;
18796;SDS011;9526;52.612;13.300;2023-08-12T00:27:33;7.63;;;4.93;;
18796;SDS011;9526;52.612;13.300;2023-08-12T00:29:57;8.50;;;4.63;;
18796;SDS011;9526;52.612;13.300;2023-08-12T00:32:20;8.50;;;5.20;;
18796;SDS011;9526;52.612;13.300;2023-08-12T00:34:44;7.13;;;4.72;;
18796;SDS011;9526;52.612;13.300;2023-08-12T00:37:09;7.93;;;4.82;;
18796;SDS011;9526;52.612;13.300;2023-08-12T00:39:33;8.10;;;4.60;;
18796;SDS011;9526;52.612;13.300;2023-08-12T00:41:57;7.07;;;5.35;;
18796;SDS011;9526;52.612;13.300;2023-08-12T00:44:22;7.93;;;4.80;;
18796;SDS011;9526;52.612;13.300;2023-08-12T00:46:47;7.60;;;4.68;;
18796;SDS011;9526;52.612;13.300;2023-08-12T00:49:12;5.78;;;4.53;;
18796;SDS011;9526;52.612;13.300;2023-08-12T00:51:36;8.20;;;4.70;;
18796;SDS011;9526;52.612;13.300;2023-08-12T00:54:03;8.30;;;5.10;;
18796;SDS011;9526;52.612;13.300;2023-08-12T00:56:29;7.63;;;5.40;;
18796;SDS011;9526;52.612;13.300;2023-08-12T00:58:54;5.80;;;4.45;;
18796;SDS011;9526;52.612;13.300;2023-08-12T01:01:19;7.18;;;5.40;;
18796;SDS011;9526;52.612;13.300;2023-08-12T01:03:43;7.63;;;4.55;;
18796;SDS011;9526;52.612;13.300;2023-08-12T01:06:07;6.20;;;4.60;;
18796;SDS011;9526;52.612;13.300;2023-08-12T01:08:31;6.47;;;4.70;;
18796;SDS011;9526;52.612;13.300;2023-08-12T01:10:56;8.05;;;4.80;;
18796;SDS011;9526;52.612;13.300;2023-08-12T01:13:32;7.70;;;5.70;;
18796;SDS011;9526;52.612;13.300;2023-08-12T01:16:11;7.35;;;4.65;;
18796;SDS011;9526;52.612;13.300;2023-08-12T01:18:40;6.43;;;4.68;;
18796;SDS011;9526;52.612;13.300;2023-08-12T01:21:05;7.88;;;4.93;;
18796;SDS011;9526;52.612;13.300;2023-08-12T01:23:35;7.53;;;5.07;;
18796;SDS011;9526;52.612;13.300;2023-08-12T01:26:00;9.38;;;5.05;;
18796;SDS011;9526;52.612;13.300;2023-08-12T01:28:23;6.93;;;4.72;;
18796;SDS011;9526;52.612;13.300;2023-08-12T01:30:49;5.35;;;4.63;;
18796;SDS011;9526;52.612;13.300;2023-08-12T01:33:21;8.43;;;5.20;;
18796;SDS011;9526;52.612;13.300;2023-08-12T01:35:54;7.78;;;4.80;;
18796;SDS011;9526;52.612;13.300;2023-08-12T01:38:23;5.80;;;4.40;;
18796;SDS011;9526;52.612;13.300;2023-08-12T01:40:52;6.20;;;4.65;;
18796;SDS011;9526;52.612;13.300;2023-08-12T01:43:17;9.60;;;5.10;;
18796;SDS011;9526;52.612;13.300;2023-08-12T01:45:41;7.07;;;4.90;;
18796;SDS011;9526;52.612;13.300;2023-08-12T01:48:05;7.05;;;4.68;;
18796;SDS011;9526;52.612;13.300;2023-08-12T01:50:29;6.95;;;4.70;;
18796;SDS011;9526;52.612;13.300;2023-08-12T01:52:53;6.38;;;4.68;;
18796;SDS011;9526;52.612;13.300;2023-08-12T01:55:17;5.63;;;4.55;;
18796;SDS011;9526;52.612;13.300;2023-08-12T01:57:42;5.55;;;4.55;;
18796;SDS011;9526;52.612;13.300;2023-08-12T02:00:06;5.75;;;4.72;;
18796;SDS011;9526;52.612;13.300;2023-08-12T02:02:37;6.85;;;4.63;;
18796;SDS011;9526;52.612;13.300;2023-08-12T02:05:00;7.07;;;4.78;;
18796;SDS011;9526;52.612;13.300;2023-08-12T02:07:24;7.03;;;4.72;;
18796;SDS011;9526;52.612;13.300;2023-08-12T02:09:48;6.00;;;4.57;;
18796;SDS011;9526;52.612;13.300;2023-08-12T02:12:11;7.20;;;5.32;;
18796;SDS011;9526;52.612;13.300;2023-08-12T02:14:37;7.57;;;4.93;;
18796;SDS011;9526;52.612;13.300;2023-08-12T02:17:00;6.28;;;4.78;;
18796;SDS011;9526;52.612;13.300;2023-08-12T02:19:27;7.63;;;5.30;;
18796;SDS011;9526;52.612;13.300;2023-08-12T02:21:50;5.95;;;4.47;;
18796;SDS011;9526;52.612;13.300;2023-08-12T02:24:14;7.43;;;5.03;;
18796;SDS011;9526;52.612;13.300;2023-08-12T02:26:38;7.30;;;5.32;;
18796;SDS011;9526;52.612;13.300;2023-08-12T02:29:01;7.90;;;4.97;;
18796;SDS011;9526;52.612;13.300;2023-08-12T02:31:27;6.13;;;4.38;;
18796;SDS011;9526;52.612;13.300;2023-08-12T02:33:50;6.80;;;5.13;;
18796;SDS011;9526;52.612;13.300;2023-08-12T02:36:14;7.45;;;4.88;;
18796;SDS011;9526;52.612;13.300;2023-08-12T02:38:38;6.78;;;4.97;;
18796;SDS011;9526;52.612;13.300;2023-08-12T02:41:03;6.57;;;4.88;;
18796;SDS011;9526;52.612;13.300;2023-08-12T02:43:27;7.93;;;5.13;;
18796;SDS011;9526;52.612;13.300;2023-08-12T02:45:50;6.88;;;5.00;;
18796;SDS011;9526;52.612;13.300;2023-08-12T02:48:15;6.80;;;5.00;;
18796;SDS011;9526;52.612;13.300;2023-08-12T02:50:39;6.57;;;4.93;;
18796;SDS011;9526;52.612;13.300;2023-08-12T02:53:04;7.68;;;4.97;;
18796;SDS011;9526;52.612;13.300;2023-08-12T02:55:28;10.13;;;5.13;;
18796;SDS011;9526;52.612;13.300;2023-08-12T02:57:54;8.73;;;5.63;;
18796;SDS011;9526;52.612;13.300;2023-08-12T03:00:18;7.05;;;5.18;;
18796;SDS011;9526;52.612;13.300;2023-08-12T03:02:43;6.05;;;5.05;;
18796;SDS011;9526;52.612;13.300;2023-08-12T03:05:09;5.55;;;4.40;;
18796;SDS011;9526;52.612;13.300;2023-08-12T03:07:32;7.15;;;5.00;;
18796;SDS011;9526;52.612;13.300;2023-08-12T03:09:56;7.38;;;5.15;;
18796;SDS011;9526;52.612;13.300;2023-08-12T03:12:21;7.63;;;5.07;;
18796;SDS011;9526;52.612;13.300;2023-08-12T03:14:45;7.13;;;4.90;;
18796;SDS011;9526;52.612;13.300;2023-08-12T03:17:08;7.15;;;5.43;;
18796;SDS011;9526;52.612;13.300;2023-08-12T03:19:33;6.50;;;4.70;;
18796;SDS011;9526;52.612;13.300;2023-08-12T03:21:58;7.95;;;5.10;;
18796;SDS011;9526;52.612;13.300;2023-08-12T03:24:22;6.40;;;4.70;;
18796;SDS011;9526;52.612;13.300;2023-08-12T03:26:47;6.20;;;4.90;;
18796;SDS011;9526;52.612;13.300;2023-08-12T03:29:11;7.43;;;5.05;;
18796;SDS011;9526;52.612;13.300;2023-08-12T03:31:36;7.25;;;4.85;;
18796;SDS011;9526;52.612;13.300;2023-08-12T03:34:00;7.13;;;4.93;;
18796;SDS011;9526;52.612;13.300;2023-08-12T03:36:26;8.05;;;4.93;;
18796;SDS011;9526;52.612;13.300;2023-08-12T03:38:51;6.78;;;5.03;;
18796;SDS011;9526;52.612;13.300;2023-08-12T03:41:19;7.82;;;5.38;;
18796;SDS011;9526;52.612;13.300;2023-08-12T03:43:43;5.63;;;4.90;;
18796;SDS011;9526;52.612;13.300;2023-08-12T03:46:08;8.07;;;5.25;;
18796;SDS011;9526;52.612;13.300;2023-08-12T03:48:32;6.90;;;5.07;;
18796;SDS011;9526;52.612;13.300;2023-08-12T03:50:56;7.93;;;4.90;;
18796;SDS011;9526;52.612;13.300;2023-08-12T03:53:20;7.95;;;4.72;;
18796;SDS011;9526;52.612;13.300;2023-08-12T03:55:45;7.20;;;4.68;;
18796;SDS011;9526;52.612;13.300;2023-08-12T03:58:10;6.57;;;4.90;;
18796;SDS011;9526;52.612;13.300;2023-08-12T04:00:34;8.43;;;5.03;;
18796;SDS011;9526;52.612;13.300;2023-08-12T04:03:05;6.53;;;5.05;;
18796;SDS011;9526;52.612;13.300;2023-08-12T04:05:29;8.10;;;5.05;;
18796;SDS011;9526;52.612;13.300;2023-08-12T04:07:53;7.45;;;5.22;;
18796;SDS011;9526;52.612;13.300;2023-08-12T04:10:16;7.57;;;5.30;;
18796;SDS011;9526;52.612;13.300;2023-08-12T04:12:42;6.43;;;4.82;;
18796;SDS011;9526;52.612;13.300;2023-08-12T04:15:07;6.18;;;5.20;;
18796;SDS011;9526;52.612;13.300;2023-08-12T04:17:32;6.15;;;4.90;;
18796;SDS011;9526;52.612;13.300;2023-08-12T04:19:57;5.88;;;5.03;;
18796;SDS011;9526;52.612;13.300;2023-08-12T04:22:22;5.57;;;4.82;;
18796;SDS011;9526;52.612;13.300;2023-08-12T04:24:46;6.72;;;5.05;;
18796;SDS011;9526;52.612;13.300;2023-08-12T04:27:09;7.28;;;4.95;;
18796;SDS011;9526;52.612;13.300;2023-08-12T04:29:35;6.70;;;4.80;;
18796;SDS011;9526;52.612;13.300;2023-08-12T04:31:59;5.80;;;4.95;;
18796;SDS011;9526;52.612;13.300;2023-08-12T04:34:24;6.35;;;5.10;;
18796;SDS011;9526;52.612;13.300;2023-08-12T04:36:48;7.15;;;5.25;;
18796;SDS011;9526;52.612;13.300;2023-08-12T04:39:11;6.53;;;5.43;;
18796;SDS011;9526;52.612;13.300;2023-08-12T04:41:37;6.13;;;4.63;;
18796;SDS011;9526;52.612;13.300;2023-08-12T04:44:01;6.78;;;5.22;;
18796;SDS011;9526;52.612;13.300;2023-08-12T04:46:27;7.07;;;5.38;;
18796;SDS011;9526;52.612;13.300;2023-08-12T04:48:50;6.65;;;5.35;;
18796;SDS011;9526;52.612;13.300;2023-08-12T04:51:14;7.90;;;5.70;;
18796;SDS011;9526;52.612;13.300;2023-08-12T04:53:38;6.68;;;5.25;;
18796;SDS011;9526;52.612;13.300;2023-08-12T04:56:01;7.38;;;5.13;;
18796;SDS011;9526;52.612;13.300;2023-08-12T04:58:26;6.97;;;5.78;;
18796;SDS011;9526;52.612;13.300;2023-08-12T05:00:50;5.95;;;5.03;;
18796;SDS011;9526;52.612;13.300;2023-08-12T05:03:17;7.47;;;5.13;;
18796;SDS011;9526;52.612;13.300;2023-08-12T05:05:42;7.35;;;5.40;;
18796;SDS011;9526;52.612;13.300;2023-08-12T05:08:06;8.38;;;5.40;;
18796;SDS011;9526;52.612;13.300;2023-08-12T05:10:31;7.35;;;5.13;;
18796;SDS011;9526;52.612;13.300;2023-08-12T05:12:56;8.77;;;5.03;;
18796;SDS011;9526;52.612;13.300;2023-08-12T05:15:21;7.32;;;5.35;;
18796;SDS011;9526;52.612;13.300;2023-08-12T05:17:44;6.93;;;4.88;;
18796;SDS011;9526;52.612;13.300;2023-08-12T05:20:12;6.57;;;5.20;;
18796;SDS011;9526;52.612;13.300;2023-08-12T05:22:36;6.63;;;4.65;;
18796;SDS011;9526;52.612;13.300;2023-08-12T05:25:00;6.22;;;5.22;;
18796;SDS011;9526;52.612;13.300;2023-08-12T05:27:23;6.18;;;4.97;;
18796;SDS011;9526;52.612;13.300;2023-08-12T05:29:47;6.90;;;4.53;;
18796;SDS011;9526;52.612;13.300;2023-08-12T05:32:11;7.40;;;4.35;;
18796;SDS011;9526;52.612;13.300;2023-08-12T05:34:35;5.00;;;4.05;;
18796;SDS011;9526;52.612;13.300;2023-08-12T05:37:00;5.40;;;3.92;;
18796;SDS011;9526;52.612;13.300;2023-08-12T05:39:24;9.07;;;4.45;;
18796;SDS011;9526;52.612;13.300;2023-08-12T05:41:47;6.05;;;4.28;;
18796;SDS011;9526;52.612;13.300;2023-08-12T05:44:13;5.82;;;4.20;;
18796;SDS011;9526;52.612;13.300;2023-08-12T05:46:37;4.70;;;4.05;;
18796;SDS011;9526;52.612;13.300;2023-08-12T05:49:01;7.45;;;4.70;;
18796;SDS011;9526;52.612;13.300;2023-08-12T05:51:25;5.25;;;3.97;;
18796;SDS011;9526;52.612;13.300;2023-08-12T05:53:52;5.00;;;3.92;;
18796;SDS011;9526;52.612;13.300;2023-08-12T05:56:16;7.90;;;3.95;;
18796;SDS011;9526;52.612;13.300;2023-08-12T05:58:40;5.95;;;4.47;;
18796;SDS011;9526;52.612;13.300;2023-08-12T06:01:03;8.23;;;4.80;;
18796;SDS011;9526;52.612;13.300;2023-08-12T06:03:27;5.10;;;4.00;;
18796;SDS011;9526;52.612;13.300;2023-08-12T06:05:51;5.00;;;4.10;;
18796;SDS011;9526;52.612;13.300;2023-08-12T06:08:15;7.05;;;4.13;;
18796;SDS011;9526;52.612;13.300;2023-08-12T06:10:40;6.60;;;3.95;;
18796;SDS011;9526;52.612;13.300;2023-08-12T06:13:04;7.40;;;4.20;;
18796;SDS011;9526;52.612;13.300;2023-08-12T06:15:28;6.15;;;3.78;;
18796;SDS011;9526;52.612;13.300;2023-08-12T06:17:52;4.35;;;3.95;;
18796;SDS011;9526;52.612;13.300;2023-08-12T06:20:15;7.40;;;3.60;;
18796;SDS011;9526;52.612;13.300;2023-08-12T06:22:39;5.80;;;4.18;;
18796;SDS011;9526;52.612;13.300;2023-08-12T06:25:03;5.28;;;3.78;;
18796;SDS011;9526;52.612;13.300;2023-08-12T06:27:29;5.05;;;3.70;;
18796;SDS011;9526;52.612;13.300;2023-08-12T06:29:53;5.55;;;3.65;;
18796;SDS011;9526;52.612;13.300;2023-08-12T06:32:16;7.75;;;4.10;;
18796;SDS011;9526;52.612;13.300;2023-08-12T06:34:40;4.75;;;3.72;;
18796;SDS011;9526;52.612;13.300;2023-08-12T06:37:04;5.18;;;4.30;;
18796;SDS011;9526;52.612;13.300;2023-08-12T06:39:27;7.30;;;3.70;;
18796;SDS011;9526;52.612;13.300;2023-08-12T06:41:51;6.93;;;4.20;;
18796;SDS011;9526;52.612;13.300;2023-08-12T06:44:16;7.10;;;4.00;;
18796;SDS011;9526;52.612;13.300;2023-08-12T06:46:40;5.68;;;3.70;;
18796;SDS011;9526;52.612;13.300;2023-08-12T06:49:04;5.10;;;4.03;;
18796;SDS011;9526;52.612;13.300;2023-08-12T06:51:28;6.43;;;3.70;;
18796;SDS011;9526;52.612;13.300;2023-08-12T06:53:52;7.40;;;3.63;;
18796;SDS011;9526;52.612;13.300;2023-08-12T06:56:15;5.63;;;3.85;;
18796;SDS011;9526;52.612;13.300;2023-08-12T06:58:39;4.45;;;3.78;;
18796;SDS011;9526;52.612;13.300;2023-08-12T07:01:04;4.78;;;3.47;;
18796;SDS011;9526;52.612;13.300;2023-08-12T07:03:28;6.90;;;4.10;;
18796;SDS011;9526;52.612;13.300;2023-08-12T07:05:52;5.60;;;3.67;;
18796;SDS011;9526;52.612;13.300;2023-08-12T07:08:15;5.35;;;3.70;;
18796;SDS011;9526;52.612;13.300;2023-08-12T07:10:39;5.20;;;3.53;;
18796;SDS011;9526;52.612;13.300;2023-08-12T07:13:04;4.40;;;3.60;;
18796;SDS011;9526;52.612;13.300;2023-08-12T07:15:27;4.38;;;3.63;;
18796;SDS011;9526;52.612;13.300;2023-08-12T07:17:52;4.40;;;3.50;;
18796;SDS011;9526;52.612;13.300;2023-08-12T07:20:16;5.70;;;4.03;;
18796;SDS011;9526;52.612;13.300;2023-08-12T07:22:40;5.22;;;3.90;;
18796;SDS011;9526;52.612;13.300;2023-08-12T07:25:04;4.40;;;3.58;;
18796;SDS011;9526;52.612;13.300;2023-08-12T07:27:29;3.75;;;3.35;;
18796;SDS011;9526;52.612;13.300;2023-08-12T07:29:53;5.40;;;3.80;;
18796;SDS011;9526;52.612;13.300;2023-08-12T07:32:16;5.00;;;3.67;;
18796;SDS011;9526;52.612;13.300;2023-08-12T07:34:41;6.85;;;3.65;;
18796;SDS011;9526;52.612;13.300;2023-08-12T07:37:05;5.93;;;3.72;;
18796;SDS011;9526;52.612;13.300;2023-08-12T07:39:29;5.55;;;3.17;;
18796;SDS011;9526;52.612;13.300;2023-08-12T07:41:52;8.75;;;3.80;;
18796;SDS011;9526;52.612;13.300;2023-08-12T07:44:16;7.72;;;3.40;;
18796;SDS011;9526;52.612;13.300;2023-08-12T07:46:40;5.38;;;3.70;;
18796;SDS011;9526;52.612;13.300;2023-08-12T07:49:04;5.78;;;3.25;;
18796;SDS011;9526;52.612;13.300;2023-08-12T07:51:29;5.32;;;3.45;;
18796;SDS011;9526;52.612;13.300;2023-08-12T07:53:53;7.38;;;3.97;;
18796;SDS011;9526;52.612;13.300;2023-08-12T07:56:17;4.28;;;3.65;;
18796;SDS011;9526;52.612;13.300;2023-08-12T07:58:40;6.03;;;3.45;;
18796;SDS011;9526;52.612;13.300;2023-08-12T08:01:04;4.82;;;3.70;;
18796;SDS011;9526;52.612;13.300;2023-08-12T08:03:30;6.05;;;3.33;;
18796;SDS011;9526;52.612;13.300;2023-08-12T08:05:55;7.35;;;4.10;;
18796;SDS011;9526;52.612;13.300;2023-08-12T08:08:20;4.95;;;3.70;;
18796;SDS011;9526;52.612;13.300;2023-08-12T08:10:43;4.88;;;3.65;;
18796;SDS011;9526;52.612;13.300;2023-08-12T08:13:07;6.82;;;4.10;;
18796;SDS011;9526;52.612;13.300;2023-08-12T08:15:31;4.43;;;3.50;;
18796;SDS011;9526;52.612;13.300;2023-08-12T08:17:54;5.22;;;3.50;;
18796;SDS011;9526;52.612;13.300;2023-08-12T08:20:18;5.00;;;4.07;;
18796;SDS011;9526;52.612;13.300;2023-08-12T08:22:42;5.70;;;3.65;;
18796;SDS011;9526;52.612;13.300;2023-08-12T08:25:08;6.55;;;3.85;;
18796;SDS011;9526;52.612;13.300;2023-08-12T08:27:31;5.22;;;3.60;;
18796;SDS011;9526;52.612;13.300;2023-08-12T08:29:55;7.03;;;3.85;;
18796;SDS011;9526;52.612;13.300;2023-08-12T08:32:19;3.78;;;3.38;;
18796;SDS011;9526;52.612;13.300;2023-08-12T08:34:43;4.88;;;3.70;;
18796;SDS011;9526;52.612;13.300;2023-08-12T08:37:06;4.93;;;3.75;;
18796;SDS011;9526;52.612;13.300;2023-08-12T08:39:30;4.75;;;4.18;;
18796;SDS011;9526;52.612;13.300;2023-08-12T08:41:55;8.25;;;4.80;;
18796;SDS011;9526;52.612;13.300;2023-08-12T08:44:21;9.63;;;7.30;;
18796;SDS011;9526;52.612;13.300;2023-08-12T08:46:45;8.13;;;6.25;;
18796;SDS011;9526;52.612;13.300;2023-08-12T08:49:10;9.10;;;5.22;;
18796;SDS011;9526;52.612;13.300;2023-08-12T08:51:34;10.05;;;6.80;;
18796;SDS011;9526;52.612;13.300;2023-08-12T08:53:58;7.95;;;5.53;;
18796;SDS011;9526;52.612;13.300;2023-08-12T08:56:24;8.07;;;4.50;;
18796;SDS011;9526;52.612;13.300;2023-08-12T08:58:50;6.05;;;3.95;;
18796;SDS011;9526;52.612;13.300;2023-08-12T09:01:15;4.43;;;3.97;;
18796;SDS011;9526;52.612;13.300;2023-08-12T09:03:43;7.57;;;4.07;;
18796;SDS011;9526;52.612;13.300;2023-08-12T09:06:08;5.80;;;3.72;;
18796;SDS011;9526;52.612;13.300;2023-08-12T09:08:33;5.68;;;4.00;;
18796;SDS011;9526;52.612;13.300;2023-08-12T09:10:57;6.25;;;4.10;;
18796;SDS011;9526;52.612;13.300;2023-08-12T09:13:22;4.68;;;3.88;;
18796;SDS011;9526;52.612;13.300;2023-08-12T09:15:47;5.85;;;4.30;;
18796;SDS011;9526;52.612;13.300;2023-08-12T09:18:11;5.47;;;4.15;;
18796;SDS011;9526;52.612;13.300;2023-08-12T09:20:35;5.32;;;4.13;;
18796;SDS011;9526;52.612;13.300;2023-08-12T09:22:59;5.88;;;4.10;;
18796;SDS011;9526;52.612;13.300;2023-08-12T09:25:24;4.05;;;3.42;;
18796;SDS011;9526;52.612;13.300;2023-08-12T09:27:50;5.47;;;4.00;;
18796;SDS011;9526;52.612;13.300;2023-08-12T09:30:17;6.25;;;4.47;;
18796;SDS011;9526;52.612;13.300;2023-08-12T09:32:45;5.38;;;4.07;;
18796;SDS011;9526;52.612;13.300;2023-08-12T09:35:23;6.20;;;4.43;;
18796;SDS011;9526;52.612;13.300;2023-08-12T09:37:56;5.93;;;4.22;;
18796;SDS011;9526;52.612;13.300;2023-08-12T09:40:20;6.63;;;4.03;;
18796;SDS011;9526;52.612;13.300;2023-08-12T09:42:45;6.10;;;4.25;;
18796;SDS011;9526;52.612;13.300;2023-08-12T09:45:09;7.57;;;4.38;;
18796;SDS011;9526;52.612;13.300;2023-08-12T09:47:34;7.38;;;4.20;;
18796;SDS011;9526;52.612;13.300;2023-08-12T09:50:00;6.25;;;4.40;;
18796;SDS011;9526;52.612;13.300;2023-08-12T09:52:24;4.57;;;4.07;;
18796;SDS011;9526;52.612;13.300;2023-08-12T09:54:48;6.78;;;4.22;;
18796;SDS011;9526;52.612;13.300;2023-08-12T09:57:17;5.93;;;4.32;;
18796;SDS011;9526;52.612;13.300;2023-08-12T09:59:42;5.15;;;4.35;;
18796;SDS011;9526;52.612;13.300;2023-08-12T10:02:10;7.13;;;4.55;;
18796;SDS011;9526;52.612;13.300;2023-08-12T10:04:41;5.80;;;4.78;;
18796;SDS011;9526;52.612;13.300;2023-08-12T10:07:09;5.32;;;4.40;;
18796;SDS011;9526;52.612;13.300;2023-08-12T10:09:34;6.32;;;4.40;;
18796;SDS011;9526;52.612;13.300;2023-08-12T10:11:59;7.38;;;4.78;;
18796;SDS011;9526;52.612;13.300;2023-08-12T10:14:23;6.03;;;4.55;;
18796;SDS011;9526;52.612;13.300;2023-08-12T10:16:47;5.85;;;4.57;;
18796;SDS011;9526;52.612;13.300;2023-08-12T10:19:11;4.78;;;3.95;;
18796;SDS011;9526;52.612;13.300;2023-08-12T10:21:35;7.80;;;4.30;;
18796;SDS011;9526;52.612;13.300;2023-08-12T10:24:00;6.03;;;4.30;;
18796;SDS011;9526;52.612;13.300;2023-08-12T10:26:26;4.78;;;4.18;;
18796;SDS011;9526;52.612;13.300;2023-08-12T10:28:51;7.35;;;4.32;;
18796;SDS011;9526;52.612;13.300;2023-08-12T10:31:14;5.60;;;4.25;;
18796;SDS011;9526;52.612;13.300;2023-08-12T10:33:38;7.90;;;4.55;;
18796;SDS011;9526;52.612;13.300;2023-08-12T10:36:02;6.70;;;4.60;;
18796;SDS011;9526;52.612;13.300;2023-08-12T10:38:28;5.68;;;4.60;;
18796;SDS011;9526;52.612;13.300;2023-08-12T10:40:53;6.35;;;4.43;;
18796;SDS011;9526;52.612;13.300;2023-08-12T10:43:48;4.90;;;4.40;;
18796;SDS011;9526;52.612;13.300;2023-08-12T10:46:20;4.80;;;4.30;;
18796;SDS011;9526;52.612;13.300;2023-08-12T10:48:55;5.50;;;4.30;;
18796;SDS011;9526;52.612;13.300;2023-08-12T10:54:17;5.93;;;4.55;;
18796;SDS011;9526;52.612;13.300;2023-08-12T10:57:08;8.85;;;4.60;;
18796;SDS011;9526;52.612;13.300;2023-08-12T10:59:52;5.40;;;4.53;;
18796;SDS011;9526;52.612;13.300;2023-08-12T11:02:17;7.13;;;4.68;;
18796;SDS011;9526;52.612;13.300;2023-08-12T11:04:42;6.95;;;4.40;;
18796;SDS011;9526;52.612;13.300;2023-08-12T11:07:14;6.25;;;4.40;;
18796;SDS011;9526;52.612;13.300;2023-08-12T11:09:39;6.63;;;5.05;;
18796;SDS011;9526;52.612;13.300;2023-08-12T11:12:03;7.68;;;4.72;;
18796;SDS011;9526;52.612;13.300;2023-08-12T11:14:29;6.18;;;4.53;;
18796;SDS011;9526;52.612;13.300;2023-08-12T11:16:53;5.20;;;4.53;;
18796;SDS011;9526;52.612;13.300;2023-08-12T11:19:16;6.07;;;4.32;;
18796;SDS011;9526;52.612;13.300;2023-08-12T11:21:41;5.60;;;4.43;;
18796;SDS011;9526;52.612;13.300;2023-08-12T11:24:06;6.25;;;4.72;;
18796;SDS011;9526;52.612;13.300;2023-08-12T11:26:30;4.93;;;4.43;;
18796;SDS011;9526;52.612;13.300;2023-08-12T11:28:54;5.53;;;4.35;;
18796;SDS011;9526;52.612;13.300;2023-08-12T11:31:19;5.15;;;4.40;;
18796;SDS011;9526;52.612;13.300;2023-08-12T11:33:45;6.22;;;4.28;;
18796;SDS011;9526;52.612;13.300;2023-08-12T11:36:08;5.40;;;4.68;;
18796;SDS011;9526;52.612;13.300;2023-08-12T11:38:33;6.43;;;4.65;;
18796;SDS011;9526;52.612;13.300;2023-08-12T11:40:56;5.13;;;4.32;;
18796;SDS011;9526;52.612;13.300;2023-08-12T11:43:23;5.78;;;4.35;;
18796;SDS011;9526;52.612;13.300;2023-08-12T11:45:46;5.93;;;4.60;;
18796;SDS011;9526;52.612;13.300;2023-08-12T11:48:12;6.97;;;4.50;;
18796;SDS011;9526;52.612;13.300;2023-08-12T11:50:35;6.30;;;4.68;;
18796;SDS011;9526;52.612;13.300;2023-08-12T11:52:59;6.32;;;4.60;;
18796;SDS011;9526;52.612;13.300;2023-08-12T11:55:23;6.53;;;4.93;;
18796;SDS011;9526;52.612;13.300;2023-08-12T11:57:48;5.82;;;4.72;;
18796;SDS011;9526;52.612;13.300;2023-08-12T12:00:14;4.90;;;4.18;;
18796;SDS011;9526;52.612;13.300;2023-08-12T12:02:44;7.55;;;4.00;;
18796;SDS011;9526;52.612;13.300;2023-08-12T12:05:12;4.88;;;4.05;;
18796;SDS011;9526;52.612;13.300;2023-08-12T12:07:37;5.28;;;4.63;;
18796;SDS011;9526;52.612;13.300;2023-08-12T12:10:01;8.88;;;4.05;;
18796;SDS011;9526;52.612;13.300;2023-08-12T12:12:27;5.28;;;4.30;;
18796;SDS011;9526;52.612;13.300;2023-08-12T12:14:51;4.43;;;4.03;;
18796;SDS011;9526;52.612;13.300;2023-08-12T12:17:16;5.75;;;4.40;;
18796;SDS011;9526;52.612;13.300;2023-08-12T12:19:40;5.05;;;4.40;;
18796;SDS011;9526;52.612;13.300;2023-08-12T12:22:05;7.72;;;4.60;;
18796;SDS011;9526;52.612;13.300;2023-08-12T12:24:29;8.20;;;4.50;;
18796;SDS011;9526;52.612;13.300;2023-08-12T12:26:53;6.75;;;4.45;;
18796;SDS011;9526;52.612;13.300;2023-08-12T12:29:16;5.90;;;4.68;;
18796;SDS011;9526;52.612;13.300;2023-08-12T12:31:40;5.57;;;4.40;;
18796;SDS011;9526;52.612;13.300;2023-08-12T12:34:04;5.43;;;4.68;;
18796;SDS011;9526;52.612;13.300;2023-08-12T12:36:30;5.22;;;4.65;;
18796;SDS011;9526;52.612;13.300;2023-08-12T12:38:56;6.30;;;4.10;;
18796;SDS011;9526;52.612;13.300;2023-08-12T12:41:19;5.72;;;4.47;;
18796;SDS011;9526;52.612;13.300;2023-08-12T12:43:43;5.70;;;4.70;;
18796;SDS011;9526;52.612;13.300;2023-08-12T12:46:07;5.57;;;4.75;;
18796;SDS011;9526;52.612;13.300;2023-08-12T12:48:31;6.70;;;4.78;;
18796;SDS011;9526;52.612;13.300;2023-08-12T12:50:55;5.10;;;4.55;;
18796;SDS011;9526;52.612;13.300;2023-08-12T12:53:18;5.50;;;4.50;;
18796;SDS011;9526;52.612;13.300;2023-08-12T12:55:43;6.78;;;4.50;;
18796;SDS011;9526;52.612;13.300;2023-08-12T12:58:07;5.55;;;4.50;;
18796;SDS011;9526;52.612;13.300;2023-08-12T13:00:33;7.22;;;4.20;;
18796;SDS011;9526;52.612;13.300;2023-08-12T13:02:56;5.78;;;4.40;;
18796;SDS011;9526;52.612;13.300;2023-08-12T13:05:20;4.53;;;4.00;;
18796;SDS011;9526;52.612;13.300;2023-08-12T13:07:44;4.10;;;3.65;;
18796;SDS011;9526;52.612;13.300;2023-08-12T13:10:08;4.57;;;4.03;;
18796;SDS011;9526;52.612;13.300;2023-08-12T13:12:33;4.75;;;4.03;;
18796;SDS011;9526;52.612;13.300;2023-08-12T13:14:57;4.60;;;4.00;;
18796;SDS011;9526;52.612;13.300;2023-08-12T13:17:23;5.50;;;4.15;;
18796;SDS011;9526;52.612;13.300;2023-08-12T13:19:47;4.43;;;3.80;;
18796;SDS011;9526;52.612;13.300;2023-08-12T13:22:11;4.95;;;3.90;;
18796;SDS011;9526;52.612;13.300;2023-08-12T13:24:35;4.82;;;3.85;;
18796;SDS011;9526;52.612;13.300;2023-08-12T13:26:59;5.03;;;4.28;;
18796;SDS011;9526;52.612;13.300;2023-08-12T13:29:25;5.30;;;4.15;;
18796;SDS011;9526;52.612;13.300;2023-08-12T13:31:48;6.07;;;4.10;;
18796;SDS011;9526;52.612;13.300;2023-08-12T13:34:12;4.75;;;3.55;;
18796;SDS011;9526;52.612;13.300;2023-08-12T13:36:36;6.38;;;4.10;;
18796;SDS011;9526;52.612;13.300;2023-08-12T13:39:00;6.90;;;3.90;;
18796;SDS011;9526;52.612;13.300;2023-08-12T13:41:23;4.55;;;3.75;;
18796;SDS011;9526;52.612;13.300;2023-08-12T13:43:48;4.78;;;3.72;;
18796;SDS011;9526;52.612;13.300;2023-08-12T13:46:13;7.13;;;4.10;;
18796;SDS011;9526;52.612;13.300;2023-08-12T13:48:36;5.05;;;3.95;;
18796;SDS011;9526;52.612;13.300;2023-08-12T13:51:00;4.75;;;4.00;;
18796;SDS011;9526;52.612;13.300;2023-08-12T13:53:24;5.47;;;3.53;;
18796;SDS011;9526;52.612;13.300;2023-08-12T13:55:48;3.80;;;3.40;;
18796;SDS011;9526;52.612;13.300;2023-08-12T13:58:12;4.97;;;3.58;;
18796;SDS011;9526;52.612;13.300;2023-08-12T14:00:36;5.82;;;3.83;;
18796;SDS011;9526;52.612;13.300;2023-08-12T14:03:01;5.28;;;3.95;;
18796;SDS011;9526;52.612;13.300;2023-08-12T14:05:25;4.05;;;3.65;;
18796;SDS011;9526;52.612;13.300;2023-08-12T14:07:49;5.07;;;3.75;;
18796;SDS011;9526;52.612;13.300;2023-08-12T14:10:13;4.15;;;3.63;;
18796;SDS011;9526;52.612;13.300;2023-08-12T14:12:36;4.43;;;3.67;;
18796;SDS011;9526;52.612;13.300;2023-08-12T14:15:00;4.72;;;4.03;;
18796;SDS011;9526;52.612;13.300;2023-08-12T14:17:24;4.70;;;3.83;;
18796;SDS011;9526;52.612;13.300;2023-08-12T14:19:49;4.72;;;3.92;;
18796;SDS011;9526;52.612;13.300;2023-08-12T14:22:14;4.60;;;3.88;;
18796;SDS011;9526;52.612;13.300;2023-08-12T14:24:38;5.68;;;3.90;;
18796;SDS011;9526;52.612;13.300;2023-08-12T14:27:02;5.10;;;3.80;;
18796;SDS011;9526;52.612;13.300;2023-08-12T14:29:26;5.05;;;3.72;;
18796;SDS011;9526;52.612;13.300;2023-08-12T14:31:50;6.30;;;3.38;;
18796;SDS011;9526;52.612;13.300;2023-08-12T14:34:15;3.85;;;3.30;;
18796;SDS011;9526;52.612;13.300;2023-08-12T14:36:40;4.53;;;3.17;;